createdAt,value
2018-07-29T14:05:44.044Z,5.28
2018-07-29T14:08:12.828Z,5.78
2018-07-29T14:10:41.317Z,6.10
2018-07-29T14:13:09.961Z,8.80
2018-07-29T14:15:38.495Z,25.20
2018-07-29T14:18:07.293Z,34.43
2018-07-29T14:20:35.829Z,15.15
2018-07-29T14:23:04.395Z,23.55
2018-07-29T14:25:32.876Z,23.87
2018-07-29T14:28:01.730Z,9.28
2018-07-29T14:30:31.043Z,8.60
2018-07-29T14:32:59.992Z,8.25
2018-07-29T14:35:28.723Z,15.45
2018-07-29T14:37:57.446Z,6.65
2018-07-29T14:40:25.974Z,7.65
2018-07-29T14:42:54.451Z,9.70
2018-07-29T14:45:23.062Z,6.53
2018-07-29T14:47:51.540Z,8.55
2018-07-29T14:50:20.016Z,6.40
2018-07-29T14:52:48.519Z,6.12
2018-07-29T14:55:16.997Z,8.05
2018-07-29T14:57:45.481Z,5.92
2018-07-29T15:00:14.025Z,10.08
2018-07-29T15:02:42.461Z,10.15
2018-07-29T15:05:10.988Z,9.73
2018-07-29T15:07:39.965Z,5.90
2018-07-29T15:10:08.634Z,7.08
2018-07-29T15:12:37.264Z,6.78
2018-07-29T15:15:06.967Z,8.95
2018-07-29T15:17:35.479Z,5.78
2018-07-29T15:20:03.941Z,7.40
2018-07-29T15:22:32.418Z,6.50
2018-07-29T15:25:00.881Z,5.20
2018-07-29T15:27:29.355Z,8.38
2018-07-29T15:29:57.861Z,7.37
2018-07-29T15:32:26.513Z,45.63
2018-07-29T15:34:55.424Z,96.20
2018-07-29T15:37:23.980Z,116.70
2018-07-29T15:39:52.666Z,107.25
2018-07-29T15:42:21.207Z,98.78
2018-07-29T15:44:49.739Z,72.42
2018-07-29T15:47:18.246Z,32.13
2018-07-29T15:49:46.745Z,63.30
2018-07-29T15:52:15.237Z,101.40
2018-07-29T15:54:43.736Z,94.47
2018-07-29T15:57:12.289Z,70.03
2018-07-29T15:59:40.844Z,10.25
2018-07-29T16:02:09.436Z,15.20
2018-07-29T16:04:37.951Z,12.80
2018-07-29T16:07:06.412Z,20.57
2018-07-29T16:09:34.891Z,20.88
2018-07-29T16:12:03.432Z,8.03
2018-07-29T16:14:31.897Z,6.97
2018-07-29T16:17:00.535Z,13.78
2018-07-29T16:19:28.993Z,4.85
2018-07-29T16:21:57.491Z,8.43
2018-07-29T16:24:26.046Z,9.28
2018-07-29T16:26:54.500Z,7.53
2018-07-29T16:29:24.039Z,6.50
2018-07-29T16:31:52.848Z,7.78
2018-07-29T16:34:21.348Z,15.03
2018-07-29T16:36:49.808Z,5.95
2018-07-29T16:39:18.364Z,6.55
2018-07-29T16:41:47.073Z,4.28
2018-07-29T16:44:15.763Z,7.45
2018-07-29T16:46:44.239Z,6.40
2018-07-29T16:49:12.981Z,8.15
2018-07-29T16:51:41.570Z,6.65
2018-07-29T16:54:13.269Z,6.30
2018-07-29T16:56:41.756Z,6.22
2018-07-29T16:59:10.246Z,6.33
2018-07-29T17:01:38.741Z,6.92
2018-07-29T17:04:07.255Z,6.83
2018-07-29T17:06:35.788Z,4.87
2018-07-29T17:09:06.316Z,4.28
2018-07-29T17:11:34.847Z,4.60
2018-07-29T17:14:03.941Z,6.60
2018-07-29T17:16:32.917Z,6.30
2018-07-29T17:19:01.437Z,7.22
2018-07-29T17:21:29.879Z,5.47
2018-07-29T17:23:58.608Z,4.65
2018-07-29T17:26:27.143Z,4.50
2018-07-29T17:28:55.642Z,10.43
2018-07-29T17:31:24.319Z,4.33
2018-07-29T17:33:52.901Z,5.15
2018-07-29T17:36:21.430Z,3.90
2018-07-29T17:38:49.905Z,5.42
2018-07-29T17:41:18.638Z,4.78
2018-07-29T17:43:47.212Z,6.35
2018-07-29T17:46:15.692Z,8.45
2018-07-29T17:48:44.164Z,6.78
2018-07-29T17:51:12.660Z,6.42
2018-07-29T17:53:41.191Z,5.50
2018-07-29T17:56:09.744Z,4.22
2018-07-29T17:58:38.342Z,3.27
2018-07-29T18:01:06.790Z,5.78
2018-07-29T18:03:35.325Z,4.22
2018-07-29T18:06:03.784Z,4.78
2018-07-29T18:08:32.274Z,5.55
2018-07-29T18:11:01.352Z,5.42
2018-07-29T18:13:29.968Z,6.37
2018-07-29T18:15:58.453Z,4.28
2018-07-29T18:18:26.932Z,3.52
2018-07-29T18:21:00.191Z,3.98
2018-07-29T18:23:28.878Z,5.62
2018-07-29T18:25:57.333Z,5.05
2018-07-29T18:28:25.920Z,3.95
2018-07-29T18:30:54.401Z,5.00
2018-07-29T18:33:23.032Z,4.58
2018-07-29T18:35:52.292Z,4.75
2018-07-29T18:38:20.805Z,4.75
2018-07-29T18:40:49.240Z,5.55
2018-07-29T18:43:17.855Z,5.22
2018-07-29T18:45:46.387Z,6.80
2018-07-29T18:48:14.951Z,5.47
2018-07-29T18:50:43.379Z,5.35
2018-07-29T18:53:11.905Z,4.50
2018-07-29T18:55:40.563Z,3.95
2018-07-29T18:58:09.101Z,4.75
2018-07-29T19:00:37.597Z,4.30
2018-07-29T19:03:06.434Z,4.47
2018-07-29T19:05:35.113Z,5.45
2018-07-29T19:08:03.658Z,5.25
2018-07-29T19:10:35.196Z,5.62
2018-07-29T19:13:03.760Z,4.37
2018-07-29T19:15:32.271Z,4.50
2018-07-29T19:18:00.838Z,4.00
2018-07-29T19:20:29.218Z,5.22
2018-07-29T19:22:57.672Z,4.62
2018-07-29T19:25:26.440Z,5.92
2018-07-29T19:27:54.924Z,5.72
2018-07-29T19:30:23.569Z,6.10
2018-07-29T19:32:52.108Z,8.60
2018-07-29T19:35:20.589Z,8.50
2018-07-29T19:37:49.223Z,8.68
2018-07-29T19:40:17.708Z,9.95
2018-07-29T19:42:46.247Z,9.75
2018-07-29T19:45:15.621Z,9.28
2018-07-29T19:47:44.089Z,8.63
2018-07-29T19:50:12.588Z,6.37
2018-07-29T19:52:41.129Z,4.85
2018-07-29T19:55:09.736Z,9.63
2018-07-29T19:57:38.211Z,7.85
2018-07-29T20:00:07.759Z,5.20
2018-07-29T20:02:36.619Z,8.65
2018-07-29T20:05:05.452Z,6.80
2018-07-29T20:07:33.912Z,7.90
2018-07-29T20:10:02.771Z,7.78
2018-07-29T20:12:31.292Z,8.25
2018-07-29T20:14:59.957Z,8.10
2018-07-29T20:17:28.940Z,8.00
2018-07-29T20:19:57.482Z,9.33
2018-07-29T20:22:26.075Z,10.50
2018-07-29T20:24:54.625Z,9.55
2018-07-29T20:27:23.459Z,8.15
2018-07-29T20:29:52.042Z,7.83
2018-07-29T20:32:20.661Z,10.38
2018-07-29T20:34:49.163Z,7.80
2018-07-29T20:37:35.870Z,7.37
2018-07-29T20:40:05.185Z,9.38
2018-07-29T20:42:35.728Z,8.78
2018-07-29T20:45:05.336Z,9.43
2018-07-29T20:47:34.108Z,6.90
2018-07-29T20:50:03.017Z,7.75
2018-07-29T20:52:32.438Z,9.03
2018-07-29T20:55:01.077Z,8.85
2018-07-29T20:57:29.867Z,7.37
2018-07-29T20:59:59.455Z,7.55
2018-07-29T21:02:28.328Z,5.80
2018-07-29T21:04:57.998Z,6.00
2018-07-29T21:07:26.761Z,4.92
2018-07-29T21:09:55.822Z,6.58
2018-07-29T21:12:24.533Z,16.05
2018-07-29T21:14:53.047Z,23.62
2018-07-29T21:17:21.573Z,85.35
2018-07-29T21:19:50.062Z,65.22
2018-07-29T21:22:18.519Z,10.82
2018-07-29T21:24:48.270Z,6.95
2018-07-29T21:27:16.894Z,4.97
2018-07-29T21:29:45.428Z,10.72
2018-07-29T21:32:13.978Z,7.37
2018-07-29T21:34:42.557Z,15.90
2018-07-29T21:37:11.046Z,14.95
2018-07-29T21:39:39.511Z,27.30
2018-07-29T21:42:07.995Z,22.37
2018-07-29T21:44:37.024Z,19.85
2018-07-29T21:47:05.547Z,27.22
2018-07-29T21:49:34.132Z,61.00
2018-07-29T21:52:02.648Z,47.95
2018-07-29T21:54:31.191Z,52.88
2018-07-29T21:56:59.711Z,59.80
2018-07-29T21:59:28.169Z,18.30
2018-07-29T22:01:56.713Z,30.02
2018-07-29T22:04:25.222Z,15.60
2018-07-29T22:06:53.771Z,13.32
2018-07-29T22:09:22.843Z,9.53
2018-07-29T22:11:51.639Z,13.13
2018-07-29T22:14:20.125Z,11.90
2018-07-29T22:16:48.764Z,28.98
2018-07-29T22:19:17.223Z,51.23
2018-07-29T22:21:45.796Z,62.88
2018-07-29T22:24:14.435Z,60.88
2018-07-29T22:26:48.291Z,46.63
2018-07-29T22:29:22.123Z,50.85
2018-07-29T22:31:56.180Z,43.55
2018-07-29T22:34:24.646Z,41.33
2018-07-29T22:36:53.147Z,36.65
2018-07-29T22:39:21.761Z,31.48
2018-07-29T22:41:50.693Z,23.18
2018-07-29T22:44:19.391Z,23.07
2018-07-29T22:46:47.947Z,15.65
2018-07-29T22:49:16.438Z,16.20
2018-07-29T22:51:44.976Z,16.55
2018-07-29T22:54:13.512Z,22.15
2018-07-29T22:56:42.320Z,23.52
2018-07-29T22:59:10.800Z,22.48
2018-07-29T23:01:39.319Z,21.75
2018-07-29T23:04:07.840Z,23.65
2018-07-29T23:06:36.336Z,18.90
2018-07-29T23:09:07.203Z,16.15
2018-07-29T23:11:36.421Z,13.55
2018-07-29T23:14:05.054Z,16.97
2018-07-29T23:16:33.535Z,13.43
2018-07-29T23:19:02.000Z,12.23
2018-07-29T23:21:30.500Z,11.88
2018-07-29T23:23:59.019Z,10.88
2018-07-29T23:26:27.548Z,11.63
2018-07-29T23:28:56.129Z,9.48
2018-07-29T23:31:24.618Z,8.78
2018-07-29T23:33:53.165Z,9.35
2018-07-29T23:36:21.808Z,9.45
2018-07-29T23:38:50.367Z,6.70
2018-07-29T23:41:19.002Z,11.12
2018-07-29T23:43:47.477Z,8.03
2018-07-29T23:46:15.979Z,9.03
2018-07-29T23:48:44.573Z,10.23
2018-07-29T23:51:13.085Z,8.55
2018-07-29T23:53:41.588Z,7.25
2018-07-29T23:56:10.124Z,7.15
2018-07-29T23:58:38.710Z,7.25
